createdAt,value
2018-12-10T00:00:32.219Z,1.57
2018-12-10T00:03:05.449Z,1.63
2018-12-10T00:05:32.932Z,2.73
2018-12-10T00:08:00.391Z,2.13
2018-12-10T00:10:28.134Z,1.80
2018-12-10T00:12:55.591Z,1.77
2018-12-10T00:15:23.068Z,2.03
2018-12-10T00:17:50.531Z,1.50
2018-12-10T00:20:18.014Z,1.77
2018-12-10T00:22:45.476Z,1.20
2018-12-10T00:25:12.964Z,1.47
2018-12-10T00:27:40.437Z,1.17
2018-12-10T00:30:07.911Z,1.50
2018-12-10T00:32:35.392Z,1.57
2018-12-10T00:35:02.881Z,1.40
2018-12-10T00:37:30.349Z,1.70
2018-12-10T00:39:57.812Z,1.60
2018-12-10T00:42:25.291Z,1.77
2018-12-10T00:44:52.757Z,2.13
2018-12-10T00:47:20.230Z,2.03
2018-12-10T00:49:47.689Z,1.37
2018-12-10T00:52:15.171Z,1.43
2018-12-10T00:54:42.641Z,1.70
2018-12-10T00:57:10.125Z,1.70
2018-12-10T00:59:37.584Z,1.57
2018-12-10T01:02:05.394Z,1.13
2018-12-10T01:04:32.861Z,1.40
2018-12-10T01:07:00.361Z,1.50
2018-12-10T01:09:27.821Z,1.83
2018-12-10T01:11:55.300Z,1.40
2018-12-10T01:14:22.777Z,1.43
2018-12-10T01:16:50.287Z,1.53
2018-12-10T01:19:17.747Z,1.40
2018-12-10T01:21:45.230Z,0.90
2018-12-10T01:24:13.236Z,1.50
2018-12-10T01:26:40.713Z,1.40
2018-12-10T01:29:08.204Z,1.13
2018-12-10T01:31:35.662Z,0.97
2018-12-10T01:34:03.151Z,1.33
2018-12-10T01:36:30.691Z,1.47
2018-12-10T01:38:58.167Z,2.00
2018-12-10T01:41:25.652Z,1.33
2018-12-10T01:43:53.388Z,1.30
2018-12-10T01:46:20.852Z,1.40
2018-12-10T01:48:48.388Z,1.87
2018-12-10T01:51:15.854Z,1.70
2018-12-10T01:53:43.759Z,1.17
2018-12-10T01:56:11.267Z,1.57
2018-12-10T01:58:38.750Z,1.30
2018-12-10T02:01:06.325Z,1.03
2018-12-10T02:03:33.900Z,1.30
2018-12-10T02:06:01.359Z,1.00
2018-12-10T02:08:28.856Z,2.00
2018-12-10T02:10:56.320Z,0.90
2018-12-10T02:13:23.793Z,1.23
2018-12-10T02:15:51.357Z,1.40
2018-12-10T02:18:18.819Z,1.43
2018-12-10T02:20:46.318Z,1.13
2018-12-10T02:23:13.789Z,1.23
2018-12-10T02:25:41.284Z,1.50
2018-12-10T02:28:08.752Z,1.50
2018-12-10T02:30:36.235Z,1.20
2018-12-10T02:33:03.722Z,1.20
2018-12-10T02:35:31.411Z,1.27
2018-12-10T02:37:58.878Z,1.20
2018-12-10T02:40:26.361Z,1.10
2018-12-10T02:42:56.989Z,1.30
2018-12-10T02:45:24.539Z,1.60
2018-12-10T02:47:52.048Z,1.30
2018-12-10T02:50:19.534Z,1.33
2018-12-10T02:52:47.252Z,1.87
2018-12-10T02:55:14.732Z,1.20
2018-12-10T02:57:42.194Z,1.30
2018-12-10T03:00:09.683Z,1.50
2018-12-10T03:02:37.144Z,1.10
2018-12-10T03:05:04.898Z,1.67
2018-12-10T03:07:32.355Z,1.20
2018-12-10T03:09:59.848Z,1.40
2018-12-10T03:12:27.312Z,1.97
2018-12-10T03:14:54.800Z,1.60
2018-12-10T03:17:22.274Z,1.83
2018-12-10T03:19:49.772Z,1.83
2018-12-10T03:22:17.232Z,1.93
2018-12-10T03:24:44.695Z,1.73
2018-12-10T03:27:12.184Z,1.90
2018-12-10T03:29:39.648Z,2.03
2018-12-10T03:32:07.207Z,3.50
2018-12-10T03:34:34.667Z,1.73
2018-12-10T03:37:02.156Z,2.27
2018-12-10T03:39:29.623Z,2.03
2018-12-10T03:41:57.108Z,2.33
2018-12-10T03:44:24.575Z,2.63
2018-12-10T03:46:52.121Z,3.37
2018-12-10T03:49:19.628Z,3.40
2018-12-10T03:51:47.118Z,3.47
2018-12-10T03:54:14.580Z,4.30
2018-12-10T03:56:42.057Z,3.00
2018-12-10T03:59:09.531Z,4.73
2018-12-10T04:01:37.008Z,4.97
2018-12-10T04:04:04.477Z,5.40
2018-12-10T04:06:31.959Z,5.50
2018-12-10T04:08:59.416Z,5.27
2018-12-10T04:11:26.911Z,5.10
2018-12-10T04:13:54.385Z,5.67
2018-12-10T04:16:21.859Z,6.57
2018-12-10T04:18:49.370Z,6.97
2018-12-10T04:21:16.872Z,6.40
2018-12-10T04:23:44.337Z,7.03
2018-12-10T04:26:11.901Z,7.87
2018-12-10T04:28:39.384Z,6.37
2018-12-10T04:31:06.889Z,6.00
2018-12-10T04:33:34.351Z,6.40
2018-12-10T04:36:01.848Z,5.43
2018-12-10T04:38:29.340Z,6.47
2018-12-10T04:40:56.809Z,9.37
2018-12-10T04:43:24.300Z,8.60
2018-12-10T04:45:51.776Z,10.63
2018-12-10T04:48:19.257Z,7.50
2018-12-10T04:50:46.733Z,7.60
2018-12-10T04:53:14.215Z,7.17
2018-12-10T04:55:41.679Z,6.50
2018-12-10T04:58:09.236Z,7.10
2018-12-10T05:00:36.716Z,8.87
2018-12-10T05:03:04.200Z,8.93
2018-12-10T05:05:31.664Z,9.47
2018-12-10T05:07:59.160Z,11.50
2018-12-10T05:10:26.633Z,13.47
2018-12-10T05:12:54.131Z,15.63
2018-12-10T05:15:21.608Z,14.13
2018-12-10T05:17:49.100Z,15.00
2018-12-10T05:20:16.615Z,15.37
2018-12-10T05:22:44.109Z,15.60
2018-12-10T05:25:11.576Z,16.27
2018-12-10T05:27:39.076Z,14.83
2018-12-10T05:30:06.899Z,15.03
2018-12-10T05:32:34.483Z,15.13
2018-12-10T05:35:02.063Z,14.23
2018-12-10T05:37:29.753Z,14.13
2018-12-10T05:39:57.231Z,14.37
2018-12-10T05:42:24.725Z,11.80
2018-12-10T05:44:52.189Z,12.57
2018-12-10T05:47:19.683Z,10.80
2018-12-10T05:49:47.168Z,10.27
2018-12-10T05:52:14.758Z,9.90
2018-12-10T05:54:42.224Z,9.27
2018-12-10T05:57:09.723Z,9.77
2018-12-10T05:59:37.831Z,10.80
2018-12-10T06:02:05.459Z,11.20
2018-12-10T06:04:32.951Z,10.50
2018-12-10T06:07:00.420Z,9.97
2018-12-10T06:09:27.904Z,9.93
2018-12-10T06:11:55.383Z,10.33
2018-12-10T06:14:22.872Z,9.43
2018-12-10T06:16:50.332Z,9.37
2018-12-10T06:19:17.821Z,8.87
2018-12-10T06:21:45.284Z,8.70
2018-12-10T06:24:12.762Z,7.33
2018-12-10T06:26:40.239Z,5.53
2018-12-10T06:29:07.721Z,4.70
2018-12-10T06:31:35.192Z,3.70
2018-12-10T06:34:03.205Z,3.80
2018-12-10T06:36:30.672Z,4.27
2018-12-10T06:38:58.147Z,4.60
2018-12-10T06:41:25.607Z,4.30
2018-12-10T06:43:53.097Z,4.60
2018-12-10T06:46:20.569Z,5.30
2018-12-10T06:48:48.054Z,6.90
2018-12-10T06:51:15.868Z,7.33
2018-12-10T06:53:43.398Z,9.07
2018-12-10T06:56:10.862Z,8.97
2018-12-10T06:58:38.367Z,9.83
2018-12-10T07:01:05.832Z,8.50
2018-12-10T07:03:33.380Z,7.10
2018-12-10T07:06:00.891Z,6.73
2018-12-10T07:08:28.376Z,8.90
2018-12-10T07:10:55.847Z,10.53
2018-12-10T07:13:23.340Z,12.57
2018-12-10T07:15:50.815Z,13.10
2018-12-10T07:18:18.286Z,13.87
2018-12-10T07:20:45.771Z,15.73
2018-12-10T07:23:13.255Z,15.33
2018-12-10T07:25:40.748Z,16.50
2018-12-10T07:28:08.216Z,18.20
2018-12-10T07:30:41.404Z,19.13
2018-12-10T07:33:05.192Z,17.70
2018-12-10T07:35:32.681Z,16.93
2018-12-10T07:38:00.234Z,16.97
2018-12-10T07:40:27.718Z,15.47
2018-12-10T07:42:55.182Z,15.93
2018-12-10T07:45:22.680Z,14.80
2018-12-10T07:47:50.152Z,14.43
2018-12-10T07:50:17.644Z,12.83
2018-12-10T07:52:45.119Z,12.87
2018-12-10T07:55:12.807Z,12.40
2018-12-10T07:57:40.292Z,14.07
2018-12-10T08:00:07.996Z,16.57
2018-12-10T08:02:36.475Z,16.47
2018-12-10T08:05:12.109Z,16.83
2018-12-10T08:07:34.303Z,18.23
2018-12-10T08:10:02.448Z,17.73
2018-12-10T08:12:29.915Z,21.13
2018-12-10T08:14:57.404Z,21.53
2018-12-10T08:17:24.894Z,22.50
2018-12-10T08:19:52.400Z,24.93
2018-12-10T08:22:19.896Z,24.90
2018-12-10T08:24:47.607Z,23.40
2018-12-10T08:27:15.317Z,22.90
2018-12-10T08:29:42.816Z,24.23
2018-12-10T08:32:10.450Z,24.23
2018-12-10T08:37:07.429Z,23.57
2018-12-10T08:39:35.972Z,21.40
2018-12-10T08:40:14.008Z,22.70
2018-12-10T08:42:03.804Z,22.27
2018-12-10T08:44:31.320Z,19.10
2018-12-10T08:46:58.855Z,15.40
2018-12-10T08:49:26.403Z,13.10
2018-12-10T08:51:53.888Z,12.50
2018-12-10T08:54:21.363Z,11.63
2018-12-10T08:56:48.894Z,10.50
2018-12-10T08:59:16.446Z,10.30
2018-12-10T09:01:44.233Z,8.37
2018-12-10T09:04:11.708Z,8.73
2018-12-10T09:06:39.229Z,6.23
2018-12-10T09:09:07.715Z,7.50
2018-12-10T09:11:35.563Z,6.80
2018-12-10T09:14:04.001Z,6.20
2018-12-10T09:16:32.483Z,5.73
2018-12-10T09:19:01.628Z,5.40
2018-12-10T09:21:29.358Z,5.67
2018-12-10T09:23:56.827Z,5.60
2018-12-10T09:26:24.391Z,6.10
2018-12-10T09:28:51.856Z,4.90
2018-12-10T09:31:19.532Z,5.10
2018-12-10T09:33:47.483Z,5.87
2018-12-10T09:36:14.960Z,5.70
2018-12-10T09:38:42.432Z,4.80
2018-12-10T09:41:09.896Z,5.23
2018-12-10T09:43:37.385Z,3.90
2018-12-10T09:46:05.149Z,4.57
2018-12-10T09:48:32.730Z,4.77
2018-12-10T09:51:00.201Z,3.60
2018-12-10T09:53:27.969Z,3.53
2018-12-10T09:55:55.841Z,4.00
2018-12-10T09:58:23.325Z,3.40
2018-12-10T10:00:50.860Z,3.30
2018-12-10T10:03:18.351Z,4.00
2018-12-10T10:05:45.990Z,3.70
2018-12-10T10:08:14.651Z,3.80
2018-12-10T10:10:42.199Z,3.67
2018-12-10T10:13:09.927Z,3.20
2018-12-10T10:15:37.483Z,4.43
2018-12-10T10:18:05.013Z,4.60
2018-12-10T10:20:32.567Z,4.50
2018-12-10T10:23:00.199Z,5.30
2018-12-10T10:25:27.667Z,5.07
2018-12-10T10:27:55.168Z,4.90
2018-12-10T10:30:23.747Z,6.17
2018-12-10T10:32:51.252Z,4.97
2018-12-10T10:35:18.758Z,5.67
2018-12-10T10:37:46.336Z,4.70
2018-12-10T10:40:13.800Z,4.67
2018-12-10T10:42:41.756Z,4.87
2018-12-10T10:45:09.340Z,5.00
2018-12-10T10:47:37.355Z,4.93
2018-12-10T10:50:05.672Z,4.53
2018-12-10T10:52:33.470Z,4.50
2018-12-10T10:55:01.244Z,3.73
2018-12-10T10:57:28.804Z,3.80
2018-12-10T10:59:56.586Z,4.27
2018-12-10T11:02:29.905Z,3.37
2018-12-10T11:04:57.751Z,3.83
2018-12-10T11:07:25.244Z,4.03
2018-12-10T11:09:52.946Z,4.40
2018-12-10T11:12:20.757Z,4.30
2018-12-10T11:14:48.296Z,3.03
2018-12-10T11:17:15.797Z,3.83
2018-12-10T11:19:43.280Z,3.70
2018-12-10T11:22:10.788Z,3.23
2018-12-10T11:24:38.274Z,3.53
2018-12-10T11:27:05.772Z,3.30
2018-12-10T11:29:33.344Z,4.00
2018-12-10T11:32:00.851Z,3.20
2018-12-10T11:34:28.372Z,3.27
2018-12-10T11:36:55.907Z,3.03
2018-12-10T11:39:23.389Z,2.40
2018-12-10T11:41:50.875Z,3.17
2018-12-10T11:44:18.339Z,2.93
2018-12-10T11:46:45.818Z,2.80
2018-12-10T11:49:13.300Z,2.47
2018-12-10T11:51:40.775Z,2.53
2018-12-10T11:54:08.248Z,3.23
2018-12-10T11:56:35.752Z,2.50
2018-12-10T11:59:03.405Z,2.87
2018-12-10T12:01:30.889Z,2.60
2018-12-10T12:03:58.405Z,3.07
2018-12-10T12:06:25.894Z,2.37
2018-12-10T12:08:53.360Z,3.67
2018-12-10T12:11:20.841Z,2.80
2018-12-10T12:13:48.313Z,2.90
2018-12-10T12:16:15.791Z,2.80
2018-12-10T12:18:43.261Z,3.90
2018-12-10T12:21:10.741Z,2.97
2018-12-10T12:23:38.200Z,3.17
2018-12-10T12:26:05.755Z,2.70
2018-12-10T12:28:33.217Z,2.83
2018-12-10T12:31:00.696Z,2.60
2018-12-10T12:33:28.167Z,2.40
2018-12-10T12:35:55.702Z,2.70
2018-12-10T12:38:23.230Z,2.73
2018-12-10T12:40:50.715Z,2.80
2018-12-10T12:43:18.200Z,2.50
2018-12-10T12:45:45.817Z,2.77
2018-12-10T12:48:13.408Z,2.47
2018-12-10T12:50:40.875Z,2.80
2018-12-10T12:53:08.382Z,2.20
2018-12-10T12:55:35.847Z,2.17
2018-12-10T12:58:03.404Z,2.07
2018-12-10T13:00:31.502Z,2.10
2018-12-10T13:02:58.988Z,2.40
2018-12-10T13:05:26.459Z,2.13
2018-12-10T13:07:53.936Z,1.83
2018-12-10T13:10:21.492Z,2.37
2018-12-10T13:12:48.960Z,2.30
2018-12-10T13:15:16.439Z,2.27
2018-12-10T13:20:08.557Z,1.90
2018-12-10T13:22:36.023Z,1.00
2018-12-10T13:25:03.518Z,1.43
2018-12-10T13:27:39.252Z,1.43
2018-12-10T13:30:06.735Z,0.70
2018-12-10T13:32:34.217Z,0.70
2018-12-10T13:35:01.715Z,1.10
2018-12-10T13:37:29.188Z,1.93
2018-12-10T13:39:56.690Z,2.33
2018-12-10T13:42:24.155Z,2.13
2018-12-10T13:44:51.664Z,1.80
2018-12-10T13:47:19.134Z,2.23
2018-12-10T13:49:46.608Z,1.97
2018-12-10T13:52:14.116Z,2.80
2018-12-10T13:54:41.585Z,1.83
2018-12-10T13:57:09.067Z,2.00
2018-12-10T13:59:36.560Z,1.90
2018-12-10T14:02:04.057Z,1.80
2018-12-10T14:04:33.419Z,2.00
2018-12-10T14:07:00.964Z,1.40
2018-12-10T14:09:28.464Z,1.30
2018-12-10T14:11:55.980Z,1.70
2018-12-10T14:14:23.760Z,1.30
2018-12-10T14:16:51.255Z,1.73
2018-12-10T14:19:18.748Z,1.67
2018-12-10T14:21:46.236Z,2.13
2018-12-10T14:24:13.728Z,1.50
2018-12-10T14:26:41.340Z,1.83
2018-12-10T14:29:08.813Z,1.40
2018-12-10T14:31:36.303Z,2.27
2018-12-10T14:34:09.755Z,2.10
2018-12-10T14:36:37.244Z,1.77
2018-12-10T14:39:08.400Z,1.60
2018-12-10T14:41:35.964Z,1.90
2018-12-10T14:44:03.620Z,2.27
2018-12-10T14:46:31.116Z,2.17
2018-12-10T14:48:58.675Z,2.00
2018-12-10T14:51:26.283Z,2.20
2018-12-10T14:53:53.776Z,2.80
2018-12-10T14:56:21.263Z,2.57
2018-12-10T14:58:48.805Z,2.80
2018-12-10T15:01:16.321Z,5.27
2018-12-10T15:03:44.441Z,4.43
2018-12-10T15:06:12.186Z,3.90
2018-12-10T15:08:39.670Z,4.70
2018-12-10T15:11:07.130Z,6.73
2018-12-10T15:13:34.628Z,4.87
2018-12-10T15:16:02.106Z,7.03
2018-12-10T15:18:29.597Z,6.43
2018-12-10T15:20:57.072Z,6.23
2018-12-10T15:23:24.543Z,4.43
2018-12-10T15:25:52.015Z,5.77
2018-12-10T15:28:19.498Z,4.17
2018-12-10T15:30:46.974Z,4.50
2018-12-10T15:33:14.458Z,3.83
2018-12-10T15:35:42.053Z,4.20
2018-12-10T15:38:09.556Z,3.77
2018-12-10T15:40:37.041Z,3.53
2018-12-10T15:43:04.520Z,3.40
2018-12-10T15:45:32.003Z,3.50
2018-12-10T15:47:59.521Z,3.20
2018-12-10T15:50:27.053Z,3.33
2018-12-10T15:52:54.524Z,4.10
2018-12-10T15:55:22.011Z,3.23
2018-12-10T15:57:49.507Z,3.20
2018-12-10T16:00:16.996Z,3.57
2018-12-10T16:02:44.464Z,3.00
2018-12-10T16:05:12.080Z,3.10
2018-12-10T16:07:39.544Z,3.13
2018-12-10T16:10:07.793Z,3.43
2018-12-10T16:12:35.269Z,2.83
2018-12-10T16:15:02.840Z,3.50
2018-12-10T16:17:30.304Z,3.70
2018-12-10T16:19:57.788Z,3.53
2018-12-10T16:22:25.328Z,3.40
2018-12-10T16:24:52.921Z,3.23
2018-12-10T16:27:20.805Z,3.83
2018-12-10T16:29:48.288Z,4.43
2018-12-10T16:32:15.783Z,4.33
2018-12-10T16:34:43.283Z,5.13
2018-12-10T16:37:10.748Z,4.57
2018-12-10T16:39:43.580Z,4.50
2018-12-10T16:42:08.292Z,5.13
2018-12-10T16:44:35.793Z,5.33
2018-12-10T16:47:03.263Z,5.87
2018-12-10T16:49:30.779Z,6.60
2018-12-10T16:51:58.327Z,6.67
2018-12-10T16:54:25.864Z,6.93
2018-12-10T16:56:53.352Z,5.67
2018-12-10T16:59:20.824Z,6.20
2018-12-10T17:01:48.335Z,6.03
2018-12-10T17:04:15.933Z,5.80
2018-12-10T17:06:44.353Z,6.53
2018-12-10T17:09:11.968Z,5.70
2018-12-10T17:11:39.707Z,6.10
2018-12-10T17:14:07.457Z,6.40
2018-12-10T17:16:35.019Z,6.33
2018-12-10T17:19:02.484Z,6.07
2018-12-10T17:21:30.124Z,5.97
2018-12-10T17:23:57.596Z,5.80
2018-12-10T17:26:25.160Z,5.67
2018-12-10T17:28:53.076Z,5.47
2018-12-10T17:31:20.691Z,6.00
2018-12-10T17:33:48.163Z,5.67
2018-12-10T17:36:15.628Z,8.27
2018-12-10T17:38:43.117Z,5.10
2018-12-10T17:41:10.613Z,5.67
2018-12-10T17:43:38.108Z,5.73
2018-12-10T17:46:05.659Z,6.10
2018-12-10T17:48:33.409Z,7.13
2018-12-10T17:51:01.810Z,5.20
2018-12-10T17:53:29.352Z,5.53
2018-12-10T17:55:56.815Z,5.33
2018-12-10T17:58:24.308Z,5.00
2018-12-10T18:00:51.776Z,5.30
2018-12-10T18:03:19.467Z,6.60
2018-12-10T18:05:47.995Z,7.17
2018-12-10T18:08:15.628Z,5.70
2018-12-10T18:10:43.985Z,5.53
2018-12-10T18:13:11.839Z,5.10
2018-12-10T18:15:39.308Z,6.10
2018-12-10T18:18:06.787Z,8.90
2018-12-10T18:20:34.257Z,8.67
2018-12-10T18:23:01.936Z,8.47
2018-12-10T18:25:29.442Z,9.13
2018-12-10T18:27:57.092Z,5.90
2018-12-10T18:30:24.863Z,6.80
2018-12-10T18:32:52.389Z,7.77
2018-12-10T18:35:19.908Z,6.87
2018-12-10T18:37:47.376Z,6.03
2018-12-10T18:40:14.865Z,7.10
2018-12-10T18:42:42.342Z,7.70
2018-12-10T18:45:11.800Z,8.20
2018-12-10T18:47:39.271Z,6.70
2018-12-10T18:50:06.921Z,6.73
2018-12-10T18:52:34.385Z,9.50
2018-12-10T18:55:01.951Z,6.47
2018-12-10T18:57:29.419Z,6.90
2018-12-10T18:59:57.834Z,6.03
2018-12-10T19:02:25.630Z,6.00
2018-12-10T19:04:53.141Z,5.50
2018-12-10T19:07:20.608Z,8.10
2018-12-10T19:09:48.868Z,8.60
2018-12-10T19:12:16.341Z,6.57
2018-12-10T19:14:44.202Z,8.13
2018-12-10T19:17:11.917Z,7.80
2018-12-10T19:19:39.746Z,6.27
2018-12-10T19:22:07.380Z,6.33
2018-12-10T19:24:34.913Z,8.13
2018-12-10T19:27:02.399Z,9.30
2018-12-10T19:29:29.888Z,7.20
2018-12-10T19:31:57.371Z,5.83
2018-12-10T19:34:24.850Z,7.73
2018-12-10T19:36:52.340Z,8.30
2018-12-10T19:39:19.803Z,8.07
2018-12-10T19:41:47.293Z,7.30
2018-12-10T19:44:14.764Z,8.40
2018-12-10T19:46:42.522Z,11.30
2018-12-10T19:49:09.987Z,13.47
2018-12-10T19:51:37.549Z,10.63
2018-12-10T19:54:05.015Z,11.57
2018-12-10T19:56:32.511Z,14.00
2018-12-10T19:58:59.979Z,10.30
2018-12-10T20:01:27.467Z,11.37
2018-12-10T20:03:55.193Z,12.17
2018-12-10T20:06:28.304Z,11.80
2018-12-10T20:08:55.776Z,12.67
2018-12-10T20:11:23.272Z,14.40
2018-12-10T20:13:50.744Z,13.47
2018-12-10T20:16:18.247Z,11.80
2018-12-10T20:18:45.729Z,12.43
2018-12-10T20:21:13.220Z,11.77
2018-12-10T20:23:40.844Z,12.13
2018-12-10T20:26:08.341Z,13.03
2018-12-10T20:28:35.971Z,12.20
2018-12-10T20:31:03.523Z,11.83
2018-12-10T20:33:31.021Z,12.07
2018-12-10T20:35:58.593Z,12.50
2018-12-10T20:38:26.329Z,12.67
2018-12-10T20:40:53.979Z,14.30
2018-12-10T20:43:21.459Z,16.13
2018-12-10T20:45:48.938Z,13.17
2018-12-10T20:48:16.466Z,13.87
2018-12-10T20:50:43.924Z,12.10
2018-12-10T20:53:11.418Z,11.73
2018-12-10T20:55:38.887Z,11.63
2018-12-10T20:58:06.382Z,11.47
2018-12-10T21:00:33.914Z,11.27
2018-12-10T21:03:01.423Z,12.77
2018-12-10T21:05:28.988Z,12.10
2018-12-10T21:08:01.508Z,11.80
2018-12-10T21:10:29.020Z,11.93
2018-12-10T21:12:56.492Z,11.97
2018-12-10T21:15:23.980Z,12.63
2018-12-10T21:17:51.457Z,12.50
2018-12-10T21:20:18.985Z,12.13
2018-12-10T21:22:46.468Z,12.20
2018-12-10T21:25:13.965Z,10.63
2018-12-10T21:27:41.430Z,12.00
2018-12-10T21:30:08.986Z,12.33
2018-12-10T21:32:36.464Z,12.47
2018-12-10T21:35:04.274Z,11.50
2018-12-10T21:37:31.750Z,12.20
2018-12-10T21:39:59.253Z,12.60
2018-12-10T21:42:26.751Z,12.17
2018-12-10T21:44:54.235Z,11.83
2018-12-10T21:47:21.744Z,11.77
2018-12-10T21:49:49.204Z,11.20
2018-12-10T21:52:16.773Z,10.93
2018-12-10T21:54:44.371Z,10.53
2018-12-10T21:57:11.992Z,11.27
2018-12-10T21:59:39.473Z,11.73
2018-12-10T22:02:06.989Z,11.13
2018-12-10T22:04:34.473Z,12.37
2018-12-10T22:07:01.957Z,10.13
2018-12-10T22:09:29.450Z,10.43
2018-12-10T22:11:56.938Z,10.50
2018-12-10T22:14:24.412Z,10.27
2018-12-10T22:16:51.899Z,9.37
2018-12-10T22:19:19.390Z,9.53
2018-12-10T22:21:46.874Z,8.93
2018-12-10T22:24:14.366Z,9.43
2018-12-10T22:26:41.860Z,10.63
2018-12-10T22:29:09.328Z,9.07
2018-12-10T22:31:36.807Z,8.10
2018-12-10T22:34:04.295Z,9.27
2018-12-10T22:36:31.775Z,9.07
2018-12-10T22:38:59.355Z,9.10
2018-12-10T22:41:26.837Z,7.97
2018-12-10T22:43:54.329Z,9.33
2018-12-10T22:46:21.817Z,8.80
2018-12-10T22:48:49.343Z,8.47
2018-12-10T22:51:16.909Z,7.13
2018-12-10T22:53:44.402Z,6.67
2018-12-10T22:56:11.883Z,7.30
2018-12-10T22:58:39.382Z,7.57
2018-12-10T23:01:06.931Z,7.73
2018-12-10T23:03:34.421Z,8.30
2018-12-10T23:06:01.919Z,7.60
2018-12-10T23:08:29.456Z,6.60
2018-12-10T23:10:56.970Z,7.97
2018-12-10T23:13:24.452Z,8.40
2018-12-10T23:15:51.920Z,7.10
2018-12-10T23:18:19.382Z,7.33
2018-12-10T23:20:46.863Z,7.60
2018-12-10T23:23:14.331Z,7.93
2018-12-10T23:25:41.832Z,6.97
2018-12-10T23:28:09.300Z,7.70
2018-12-10T23:30:36.783Z,7.47
2018-12-10T23:33:04.332Z,7.83
2018-12-10T23:35:31.818Z,7.33
2018-12-10T23:37:59.330Z,8.13
2018-12-10T23:40:26.815Z,7.70
2018-12-10T23:43:00.031Z,8.90
2018-12-10T23:45:27.525Z,8.77
2018-12-10T23:47:54.996Z,8.13
2018-12-10T23:50:22.489Z,9.03
2018-12-10T23:52:49.961Z,7.80
2018-12-10T23:55:17.458Z,9.17
2018-12-10T23:57:44.921Z,8.00
